SBP Airport Information

Runway Information
Airport Frequencies
Airport Navaids
Airport Weather Information & NOTAM
ADDS - METARS form results

(2116 UTC 16 August 2018)
 
METAR text: SBPA 162100Z 10017KT CAVOK 17/13 Q1026
Conditions at: SBPA (PORTO ALEGRE/SAL, BR) observed 2100 UTC 16 August 2018
Temperature: 17.0°C (63°F)
Dewpoint: 13.0°C (55°F) [RH = 77%]
Pressure (altimeter): 30.30 inches Hg (1026.0 mb)
Winds: from the E (100 degrees) at 20 MPH (17 knots; 8.8 m/s)
Visibility: 6 or more miles (10+ km)
Ceiling: ceiling and visibility are OK
Clouds: unknown
Weather: no significant weather observed at this time

METAR text: SBPB 162100Z 08015KT 9999 FEW020 BKN100 28/21 Q1015
Conditions at: SBPB (PARNAIBA AIRPORT, BR) observed 2100 UTC 16 August 2018
Temperature: 28.0°C (82°F)
Dewpoint: 21.0°C (70°F) [RH = 66%]
Pressure (altimeter): 29.97 inches Hg (1015.0 mb)
Winds: from the E (80 degrees) at 17 MPH (15 knots; 7.8 m/s)
Visibility: 6 or more miles (10+ km)
Ceiling: 10000 feet AGL
Clouds: few clouds at 2000 feet AGL
broken clouds at 10000 feet AGL
Weather: no significant weather observed at this time

METAR text: SBPJ 162100Z 18003KT 9999 VCTS FEW030 FEW033CB 32/18 Q1015
Conditions at: SBPJ (PALMAS , BR) observed 2100 UTC 16 August 2018
Temperature: 32.0°C (90°F)
Dewpoint: 18.0°C (64°F) [RH = 43%]
Pressure (altimeter): 29.97 inches Hg (1015.0 mb)
Winds: from the S (180 degrees) at 3 MPH (3 knots; 1.6 m/s)
Visibility: 6 or more miles (10+ km)
Ceiling: at least 12,000 feet AGL
Clouds: few clouds at 3000 feet AGL
few clouds at 3300 feet AGL
Weather: VCTS  (thunderstorm in vicinity)

METAR text: SBPK 162100Z 09011KT 9999 BKN044 16/10 Q1027
Conditions at: SBPK (PELOTAS , BR) observed 2100 UTC 16 August 2018
Temperature: 16.0°C (61°F)
Dewpoint: 10.0°C (50°F) [RH = 68%]
Pressure (altimeter): 30.32 inches Hg (1027.0 mb)
Winds: from the E (90 degrees) at 13 MPH (11 knots; 5.7 m/s)
Visibility: 6 or more miles (10+ km)
Ceiling: 4400 feet AGL
Clouds: broken clouds at 4400 feet AGL
Weather: no significant weather observed at this time

METAR text: SBPL 162100Z 14005KT CAVOK 31/10 Q1017
Conditions at: SBPL (PETROLINA AIRPOR, BR) observed 2100 UTC 16 August 2018
Temperature: 31.0°C (88°F)
Dewpoint: 10.0°C (50°F) [RH = 27%]
Pressure (altimeter): 30.03 inches Hg (1017.0 mb)
Winds: from the SE (140 degrees) at 6 MPH (5 knots; 2.6 m/s)
Visibility: 6 or more miles (10+ km)
Ceiling: ceiling and visibility are OK
Clouds: unknown
Weather: no significant weather observed at this time

METAR text: SBPP 162100Z 03005KT 9999 FEW025 23/14 Q1022
Conditions at: SBPP (PONTA PORA INTL , BR) observed 2100 UTC 16 August 2018
Temperature: 23.0°C (73°F)
Dewpoint: 14.0°C (57°F) [RH = 57%]
Pressure (altimeter): 30.18 inches Hg (1022.0 mb)
Winds: from the NNE (30 degrees) at 6 MPH (5 knots; 2.6 m/s)
Visibility: 6 or more miles (10+ km)
Ceiling: at least 12,000 feet AGL
Clouds: few clouds at 2500 feet AGL
Weather: no significant weather observed at this time

METAR text: SBPS 162100Z 09008KT 060V120 9999 SCT020 BKN100 25/20 Q1021
Conditions at: SBPS (PORTO SEGURO , BR) observed 2100 UTC 16 August 2018
Temperature: 25.0°C (77°F)
Dewpoint: 20.0°C (68°F) [RH = 74%]
Pressure (altimeter): 30.15 inches Hg (1021.0 mb)
Winds: from the E (90 degrees) at 9 MPH (8 knots; 4.2 m/s)
Visibility: 6 or more miles (10+ km)
Ceiling: 10000 feet AGL
Clouds: scattered clouds at 2000 feet AGL
broken clouds at 10000 feet AGL
Weather: no significant weather observed at this time

METAR text: SBPV 162100Z 23001KT 9999 VCSH SCT035 FEW040TCU 29/22 Q1014
Conditions at: SBPV (PORTO VELHO(CV/M, BR) observed 2100 UTC 16 August 2018
Temperature: 29.0°C (84°F)
Dewpoint: 22.0°C (72°F) [RH = 66%]
Pressure (altimeter): 29.94 inches Hg (1014.0 mb)
Winds: from the SW (230 degrees) at 1 MPH (1 knots; 0.5 m/s)
Visibility: 6 or more miles (10+ km)
Ceiling: at least 12,000 feet AGL
Clouds: scattered clouds at 3500 feet AGL
few clouds at 4000 feet AGL
Weather: VCSH  (showers in vicinity)